Latest Weather Observations for Strathalbyn

IDS60801

Issued at 9:32 pm CDT Tuesday 31 March 2015 (issued every 30 minutes, with the page automatically refreshed every 10 minutes)

About weather observations | Map of weather stations | Latest weather observations for SA | Other Formats
Station Details ID: 024580 Name: STRATHALBYN RACECOURSE Lat: -35.28 Lon: 138.89 Height: 58.0 m
Data from the previous 72 hours. | See also: Recent months at Strathalbyn
Date/Time
CDT
Temp
°C
App
Temp
°C
Dew
Point
Rel
Hum
%
Delta-T
°C
Wind Press
QNH
hPa
Press
MSL
hPa
Rain
since 9 am
mm
Dir
 
Spd
km/h
Gust
km/h
Spd
kts
Gust
kts
31/09:30pm 19.6 16.3 6.3 42 6.6 NW 13 15 7 8 1019.3 - 0.0
31/09:00pm 19.8 17.5 5.8 40 6.9 SW 7 11 4 6 1019.3 1019.2 0.0
31/08:30pm 21.2 19.7 6.7 39 7.4 SW 4 9 2 5 1019.4 - 0.0
31/08:00pm 22.4 21.6 6.6 36 8.1 CALM 0 4 0 2 1019.4 - 0.0
31/07:30pm 23.2 20.3 6.5 34 8.6 SW 11 15 6 8 1019.4 - 0.0
31/07:00pm 25.3 21.8 7.0 31 9.6 SW 15 19 8 10 1019.3 - 0.0
31/06:30pm 26.9 22.7 5.8 26 10.9 SW 17 24 9 13 1019.1 - 0.0
31/06:00pm 28.3 23.5 5.8 24 11.7 SW 20 28 11 15 1018.7 1018.6 0.0
31/05:30pm 30.4 27.1 6.3 22 12.9 NE 13 20 7 11 1018.5 - 0.0
31/05:00pm 30.8 26.6 3.8 18 13.9 NE 15 20 8 11 1018.4 - 0.0
31/04:30pm 30.6 25.8 4.4 19 13.6 ENE 19 26 10 14 1018.6 - 0.0
31/04:00pm 30.6 25.8 4.4 19 13.6 NE 19 28 10 15 1019.0 - 0.0
31/03:30pm 30.7 25.7 4.4 19 13.6 NE 20 28 11 15 1019.1 - 0.0
31/03:00pm 30.6 25.9 5.1 20 13.3 ENE 19 28 10 15 1019.5 1019.4 0.0
31/02:30pm 30.0 25.7 5.3 21 12.9 ENE 17 24 9 13 1020.0 - 0.0
31/02:00pm 29.9 25.4 5.9 22 12.7 ENE 19 30 10 16 1020.6 - 0.0
31/01:30pm 28.7 24.8 5.5 23 12.1 NE 15 26 8 14 1021.4 - 0.0
31/01:00pm 28.3 24.1 5.8 24 11.8 NNE 17 32 9 17 1021.9 - 0.0
31/12:30pm 27.6 24.4 6.9 27 11.0 N 13 22 7 12 1022.5 - 0.0
31/12:00pm 26.6 22.2 7.6 30 10.1 NE 20 28 11 15 1023.0 1022.8 0.0
31/11:30am 25.8 21.5 7.9 32 9.6 NNE 20 30 11 16 1023.4 - 0.0
31/11:00am 24.3 19.6 7.9 35 8.7 NNE 22 32 12 17 1023.7 - 0.0
31/10:30am 22.6 17.8 9.0 42 7.3 NE 24 32 13 17 1024.0 - 0.0
31/10:00am 21.4 18.3 10.3 49 6.0 NNE 17 26 9 14 1024.4 - 0.0
31/09:30am 18.8 17.6 11.6 63 4.0 N 9 13 5 7 1024.7 - 0.0
31/09:00am 16.3 15.4 11.2 72 2.7 N 7 11 4 6 1024.8 1024.6 0.0
31/08:30am 14.0 12.5 10.4 79 1.9 N 9 11 5 6 1024.9 - 0.0
31/08:00am 12.3 9.9 9.9 85 1.2 N 13 15 7 8 1024.7 - 0.0
31/07:30am 11.7 9.2 9.6 87 1.1 NNW 13 15 7 8 1024.7 - 0.0
31/07:00am 10.7 8.7 8.6 87 1.0 NNW 9 11 5 6 1024.6 - 0.0
31/06:30am 10.6 10.2 8.2 85 1.2 CALM 0 7 0 4 1024.7 - 0.0
31/06:00am 11.1 9.6 8.5 84 1.3 NNW 6 11 3 6 1024.4 1024.2 0.0
31/05:30am 11.4 8.7 9.0 85 1.2 NNW 13 15 7 8 1024.2 - 0.0
31/05:00am 12.1 9.2 9.5 84 1.3 NNW 15 15 8 8 1024.4 - 0.0
31/04:30am 11.7 9.4 9.1 84 1.3 NNW 11 15 6 8 1024.4 - 0.0
31/04:00am 11.9 9.7 9.3 84 1.3 NNW 11 13 6 7 1024.4 - 0.0
31/03:30am 11.9 10.1 9.3 84 1.3 NNW 9 11 5 6 1024.5 - 0.0
31/03:00am 12.1 10.9 9.5 84 1.3 NNW 6 9 3 5 1024.6 1024.4 0.0
31/02:30am 12.4 11.0 9.6 83 1.4 NNW 7 9 4 5 1024.8 - 0.0
31/02:00am 12.6 10.9 9.8 83 1.4 NNW 9 13 5 7 1024.8 - 0.0
31/01:30am 12.8 10.7 9.8 82 1.5 NNW 11 13 6 7 1025.1 - 0.0
31/01:00am 13.3 11.0 10.3 82 1.6 NW 13 13 7 7 1025.0 - 0.0
31/12:30am 13.5 11.2 10.3 81 1.7 NW 13 15 7 8 1025.0 - 0.0
31/12:00am 13.4 11.0 10.0 80 1.7 NW 13 15 7 8 1025.2 1025.0 0.0
 
Date/Time
CDT
Temp
°C
App
Temp
°C
Dew
Point
Rel
Hum
%
Delta-T
°C
Wind Press
QNH
hPa
Press
MSL
hPa
Rain
since 9 am
mm
Dir
 
Spd
km/h
Gust
km/h
Spd
kts
Gust
kts
30/11:30pm 13.7 12.1 10.1 79 1.9 NW 9 11 5 6 1025.4 - 0.0
30/11:00pm 14.0 11.7 10.4 79 1.9 NW 13 13 7 7 1025.6 - 0.0
30/10:30pm 14.0 12.8 10.4 79 1.9 W 7 9 4 5 1025.9 - 0.0
30/10:00pm 14.7 13.7 11.1 79 1.9 W 7 9 4 5 1025.9 - 0.0
30/09:30pm 15.7 14.5 11.7 77 2.2 W 9 11 5 6 1025.8 - 0.0
30/09:00pm 15.8 14.2 11.6 76 2.3 WSW 11 11 6 6 1025.6 1025.4 0.0
30/08:30pm 16.3 14.9 11.0 71 2.8 WSW 9 11 5 6 1025.3 - 0.0
30/08:00pm 17.4 15.4 11.4 68 3.3 SSW 13 17 7 9 1025.0 - 0.0
30/07:30pm 18.3 15.8 11.1 63 3.9 SSW 15 17 8 9 1024.7 - 0.0
30/07:00pm 20.0 17.5 11.0 56 4.9 S 15 20 8 11 1024.4 - 0.0
30/06:30pm 21.8 18.4 10.6 49 6.2 S 19 22 10 12 1024.1 - 0.0
30/06:00pm 22.5 18.9 10.0 45 6.8 S 19 26 10 14 1023.8 1023.6 0.0
30/05:30pm 23.1 20.1 10.5 45 7.0 SSE 17 22 9 12 1023.8 - 0.0
30/05:00pm 23.8 20.4 9.0 39 8.0 SE 17 22 9 12 1023.5 - 0.0
30/04:30pm 23.9 20.2 7.9 36 8.5 SE 17 26 9 14 1023.3 - 0.0
30/04:00pm 24.9 21.7 8.4 35 8.9 SE 15 20 8 11 1023.3 - 0.0
30/03:30pm 24.9 21.5 9.2 37 8.6 SE 17 22 9 12 1023.3 - 0.0
30/03:00pm 24.3 20.7 8.3 36 8.5 SE 17 26 9 14 1023.6 1023.4 0.0
30/02:30pm 24.1 21.1 9.3 39 8.0 SE 15 28 8 15 1023.8 - 0.0
30/02:00pm 24.5 22.9 8.9 37 8.4 E 7 9 4 5 1024.0 - 0.0
30/01:30pm 23.6 21.6 8.5 38 8.1 SSE 9 17 5 9 1024.3 - 0.0
30/01:00pm 23.2 21.5 8.5 39 7.8 ENE 7 13 4 7 1024.6 - 0.0
30/12:30pm 23.0 21.3 9.8 43 7.2 E 9 15 5 8 1024.9 - 0.0
30/12:00pm 22.6 21.4 10.4 46 6.7 E 7 15 4 8 1025.2 1025.0 0.0
30/11:30am 21.3 19.7 10.2 49 6.0 ENE 9 15 5 8 1025.6 - 0.0
30/11:00am 20.5 19.0 10.6 53 5.4 NE 9 15 5 8 1025.8 - 0.0
30/10:30am 20.3 19.3 11.0 55 5.1 NE 7 15 4 8 1025.9 - 0.0
30/10:00am 19.3 18.6 12.1 63 4.0 NNW 7 11 4 6 1025.9 - 0.0
30/09:30am 17.6 16.9 12.1 70 3.0 NNW 7 9 4 5 1025.8 - 0.0
30/09:00am 16.4 15.6 12.9 80 1.9 NNW 9 11 5 6 1025.5 1025.3 0.0
30/08:30am 13.8 12.2 11.7 87 1.1 NNW 11 13 6 7 1025.2 - 0.0
30/08:00am 12.2 10.3 10.4 89 0.9 NNW 11 13 6 7 1024.9 - 0.0
30/07:30am 11.6 9.5 9.9 89 0.9 NNW 11 15 6 8 1024.6 - 0.0
30/07:00am 11.3 9.5 9.6 89 0.9 NNW 9 11 5 6 1024.2 - 0.0
30/06:30am 11.4 10.0 9.5 88 1.0 NNW 7 9 4 5 1023.8 - 0.0
30/06:00am 12.1 10.1 10.2 88 1.0 NNW 11 15 6 8 1023.6 1023.4 0.0
30/05:30am 12.0 9.2 10.1 88 1.0 NNW 15 17 8 9 1023.4 - 0.0
30/05:00am 12.3 11.3 10.2 87 1.1 NW 6 9 3 5 1023.2 - 0.0
30/04:30am 12.3 9.6 10.2 87 1.1 NNW 15 17 8 9 1023.1 - 0.0
30/04:00am 12.6 10.3 10.3 86 1.2 NNW 13 17 7 9 1023.1 - 0.0
30/03:30am 12.4 12.1 10.0 85 1.2 NW 2 7 1 4 1023.3 - 0.0
30/03:00am 12.7 10.3 10.1 84 1.3 NW 13 17 7 9 1023.5 1023.3 0.0
30/02:30am 12.9 10.5 10.1 83 1.4 NW 13 15 7 8 1023.4 - 0.0
30/02:00am 13.2 10.4 10.0 81 1.7 NW 15 17 8 9 1023.6 - 0.0
30/01:30am 13.2 11.9 10.0 81 1.7 WSW 7 9 4 5 1023.8 - 0.0
30/01:00am 13.7 12.1 10.1 79 1.9 WSW 9 11 5 6 1023.9 - 0.0
30/12:30am 14.2 13.0 10.4 78 2.0 WSW 7 9 4 5 1023.9 - 0.0
30/12:00am 14.5 13.5 10.3 76 2.2 WSW 6 7 3 4 1023.8 1023.6 0.0
 
Date/Time
CDT
Temp
°C
App
Temp
°C
Dew
Point
Rel
Hum
%
Delta-T
°C
Wind Press
QNH
hPa
Press
MSL
hPa
Rain
since 9 am
mm
Dir
 
Spd
km/h
Gust
km/h
Spd
kts
Gust
kts
29/11:30pm 15.1 14.0 10.7 75 2.3 WSW 7 9 4 5 1023.8 - 0.0
29/11:00pm 15.9 14.5 10.9 72 2.7 WSW 9 11 5 6 1023.9 - 0.0
29/10:30pm 16.8 15.4 10.9 68 3.2 SW 9 11 5 6 1023.9 - 0.0
29/10:00pm 17.8 17.0 11.1 65 3.6 SW 6 7 3 4 1023.8 - 0.0
29/09:30pm 18.1 17.3 11.0 63 3.8 SW 6 7 3 4 1023.5 - 0.0
29/09:00pm 18.1 17.3 11.0 63 3.8 SW 6 7 3 4 1023.3 1023.1 0.0
29/08:30pm 18.0 16.9 10.6 62 4.0 SW 7 9 4 5 1023.0 - 0.0
29/08:00pm 18.6 17.4 10.4 59 4.4 SSW 7 9 4 5 1022.7 - 0.0
29/07:30pm 19.0 16.7 10.3 57 4.7 SSW 13 15 7 8 1022.4 - 0.0
29/07:00pm 19.8 16.7 10.2 54 5.2 SSW 17 20 9 11 1022.2 - 0.0
29/06:30pm 21.0 17.6 9.3 47 6.2 S 17 20 9 11 1021.8 - 0.0
29/06:00pm 21.1 17.6 8.7 45 6.5 S 17 19 9 10 1021.5 1021.3 0.0
29/05:30pm 21.4 17.6 9.0 45 6.6 S 19 22 10 12 1021.3 - 0.0
29/05:00pm 22.3 19.5 8.4 41 7.4 WSW 13 20 7 11 1021.4 - 0.0
29/04:30pm 23.2 20.3 6.5 34 8.6 W 11 17 6 9 1021.2 - 0.0
29/04:00pm 22.9 19.5 7.8 38 7.9 SSW 15 20 8 11 1021.1 - 0.0
29/03:30pm 24.0 21.3 5.8 31 9.3 S 9 15 5 8 1021.1 - 0.0
29/03:00pm 23.0 20.4 6.3 34 8.5 S 9 17 5 9 1021.3 1021.1 0.0
29/02:30pm 24.1 20.6 5.5 30 9.4 W 13 20 7 11 1021.4 - 0.0
29/02:00pm 23.8 20.0 5.7 31 9.2 WNW 15 22 8 12 1021.5 - 0.0
29/01:30pm 24.1 21.8 5.5 30 9.4 E 7 11 4 6 1021.9 - 0.0
29/01:00pm 22.7 19.9 5.2 32 8.7 E 9 15 5 8 1022.3 - 0.0
29/12:30pm 22.2 19.8 5.2 33 8.5 ESE 7 11 4 6 1022.5 - 0.0
29/12:00pm 21.9 20.1 5.3 34 8.2 ESE 4 7 2 4 1022.7 1022.5 0.0
29/11:30am 21.3 19.3 6.4 38 7.5 SE 6 11 3 6 1022.9 - 0.0
29/11:00am 20.5 18.5 7.2 42 6.8 SSE 7 13 4 7 1023.1 - 0.0
29/10:30am 19.3 17.5 8.0 48 5.8 S 7 11 4 6 1023.4 - 0.0
29/10:00am 18.5 15.9 7.6 49 5.5 S 11 13 6 7 1023.4 - 0.0
29/09:30am 17.6 15.6 8.5 55 4.7 W 9 13 5 7 1023.1 - 0.0
29/09:00am 15.6 15.2 8.4 62 3.6 CALM 0 0 0 0 1022.9 1022.7 0.0
29/08:30am 14.0 10.7 8.0 67 3.0 NNW 15 17 8 9 1022.6 - 0.0
29/08:00am 12.3 9.7 7.6 73 2.3 NNW 11 13 6 7 1022.3 - 0.0
29/07:30am 10.6 8.6 7.3 80 1.6 NNW 7 11 4 6 1022.2 - 0.0
29/07:00am 10.0 9.3 6.9 81 1.5 CALM 0 0 0 0 1021.8 - 0.0
29/06:30am 10.7 9.7 7.2 79 1.7 NNW 2 6 1 3 1021.6 - 0.0
29/06:00am 10.7 8.8 7.4 80 1.6 NNW 7 7 4 4 1021.1 1020.9 0.0
29/05:30am 11.1 9.7 7.4 78 1.8 NNW 4 7 2 4 1020.9 - 0.0
29/05:00am 11.2 10.7 7.7 79 1.7 CALM 0 0 0 0 1020.9 - 0.0
29/04:30am 12.1 10.5 7.8 75 2.1 NNW 6 9 3 5 1020.5 - 0.0
29/04:00am 12.0 9.4 7.9 76 2.0 NNW 11 13 6 7 1020.4 - 0.0
29/03:30am 12.1 9.2 8.0 76 2.0 NNW 13 15 7 8 1020.8 - 0.0
29/03:00am 11.9 9.1 8.4 79 1.7 NNW 13 17 7 9 1021.0 1020.8 0.0
29/02:30am 11.4 9.3 8.3 81 1.5 N 9 11 5 6 1021.4 - 0.0
29/02:00am 11.3 8.4 8.3 82 1.5 NNW 13 15 7 8 1021.6 - 0.0
29/01:30am 11.4 8.2 8.4 82 1.5 NNW 15 17 8 9 1021.8 - 0.0
29/01:00am 11.7 8.9 8.4 80 1.6 NW 13 15 7 8 1021.9 - 0.0
29/12:30am 11.9 8.7 8.6 80 1.6 NW 15 19 8 10 1021.9 - 0.0
29/12:00am 11.4 8.1 8.1 80 1.6 NNW 15 15 8 8 1021.9 1021.7 0.0
 
Date/Time
CDT
Temp
°C
App
Temp
°C
Dew
Point
Rel
Hum
%
Delta-T
°C
Wind Press
QNH
hPa
Press
MSL
hPa
Rain
since 9 am
mm
Dir
 
Spd
km/h
Gust
km/h
Spd
kts
Gust
kts
28/11:30pm 11.9 9.1 8.4 79 1.7 NW 13 17 7 9 1022.1 - 0.0
28/11:00pm 12.0 9.6 8.5 79 1.7 NNW 11 13 6 7 1022.2 - 0.0
28/10:30pm 12.3 10.7 8.6 78 1.8 SW 7 9 4 5 1022.5 - 0.0
28/10:00pm 13.0 11.5 9.1 77 2.0 SW 7 9 4 5 1022.5 - 0.0

Other Formats:

Comma delimited format used in spreadsheet applications
http://www.bom.gov.au/fwo/IDS60801/IDS60801.94814.axf

JavaScript Object Notation format (JSON) in row-major order
http://www.bom.gov.au/fwo/IDS60801/IDS60801.94814.json